DLH89 EDDN-EDDC
Flight info
| Callsign | DLH89 |
|---|---|
| Flight time | N/A |
| Altitude | 19000 |
| Route | ERETO1G/28 ERETO Z715 ABKIS Q240 DRN |
| Aircraft | A320/M-SDE3FGHIRWY/LB1 |
Departure
| Time | 2026-05-07 14:14 |
|---|---|
| Airport | Nuremberg Airport (EDDN) |
Arrival
| Time | N/A |
|---|---|
| Airport | Dresden Airport (EDDC) |
| Time | Latitude | Longitude | Altitude | Speed | Heading |
|---|---|---|---|---|---|
| 2026-05-07 13:43 | 49.49614 | 11.07924 | 1031 ft | 0 kts | 189° |
| 2026-05-07 14:02 | 49.49592 | 11.07924 | 1031 ft | 6 kts | 162° |
| 2026-05-07 14:03 | 49.49564 | 11.08000 | 1030 ft | 9 kts | 105° |
| 2026-05-07 14:03 | 49.49553 | 11.08099 | 1030 ft | 12 kts | 99° |
| 2026-05-07 14:03 | 49.49537 | 11.08269 | 1031 ft | 14 kts | 96° |
| 2026-05-07 14:03 | 49.49586 | 11.08375 | 1032 ft | 12 kts | 38° |
| 2026-05-07 14:04 | 49.49608 | 11.08515 | 1032 ft | 15 kts | 96° |
| 2026-05-07 14:04 | 49.49595 | 11.08666 | 1034 ft | 13 kts | 98° |
| 2026-05-07 14:04 | 49.49581 | 11.08819 | 1036 ft | 16 kts | 98° |
| 2026-05-07 14:04 | 49.49572 | 11.08921 | 1037 ft | 14 kts | 98° |
| 2026-05-07 14:05 | 49.49552 | 11.09106 | 1038 ft | 12 kts | 99° |
| 2026-05-07 14:05 | 49.49544 | 11.09187 | 1039 ft | 11 kts | 98° |
| 2026-05-07 14:05 | 49.49536 | 11.09270 | 1040 ft | 0 kts | 98° |
| 2026-05-07 14:08 | 49.49535 | 11.09294 | 1041 ft | 0 kts | 96° |
| 2026-05-07 14:12 | 49.49538 | 11.09352 | 1042 ft | 10 kts | 72° |
| 2026-05-07 14:12 | 49.49580 | 11.09456 | 1042 ft | 11 kts | 51° |
| 2026-05-07 14:12 | 49.49627 | 11.09536 | 1044 ft | 9 kts | 37° |
| 2026-05-07 14:13 | 49.49687 | 11.09531 | 1045 ft | 9 kts | 328° |
| 2026-05-07 14:13 | 49.49709 | 11.09413 | 1042 ft | 14 kts | 275° |
| 2026-05-07 14:13 | 49.49739 | 11.09106 | 1040 ft | 61 kts | 279° |
| 2026-05-07 14:13 | 49.49840 | 11.08078 | 1027 ft | 129 kts | 278° |
| 2026-05-07 14:14 | 49.49995 | 11.06531 | 1409 ft | 152 kts | 279° |
| 2026-05-07 14:14 | 49.50153 | 11.04910 | 2187 ft | 157 kts | 279° |
| 2026-05-07 14:14 | 49.50303 | 11.03249 | 2957 ft | 161 kts | 279° |
| 2026-05-07 14:14 | 49.50456 | 11.01524 | 3733 ft | 164 kts | 278° |
| 2026-05-07 14:15 | 49.50629 | 10.99767 | 4378 ft | 172 kts | 279° |
| 2026-05-07 14:15 | 49.50827 | 10.97808 | 4745 ft | 195 kts | 279° |
| 2026-05-07 14:15 | 49.51046 | 10.95664 | 5086 ft | 220 kts | 280° |
| 2026-05-07 14:15 | 49.51681 | 10.93409 | 5577 ft | 246 kts | 311° |
| 2026-05-07 14:16 | 49.53237 | 10.92071 | 6404 ft | 265 kts | 344° |
| 2026-05-07 14:16 | 49.55084 | 10.91743 | 6875 ft | 274 kts | 356° |
| 2026-05-07 14:16 | 49.56985 | 10.91866 | 7019 ft | 274 kts | 1° |
| 2026-05-07 14:16 | 49.58903 | 10.92143 | 7306 ft | 281 kts | 2° |
| 2026-05-07 14:17 | 49.60850 | 10.92412 | 8382 ft | 280 kts | 1° |
| 2026-05-07 14:17 | 49.62799 | 10.92617 | 9436 ft | 283 kts | 360° |
| 2026-05-07 14:17 | 49.64790 | 10.92757 | 10332 ft | 290 kts | 359° |
| 2026-05-07 14:17 | 49.66885 | 10.92849 | 10731 ft | 314 kts | 359° |
| 2026-05-07 14:18 | 49.69130 | 10.93341 | 11059 ft | 341 kts | 14° |
| 2026-05-07 14:18 | 49.71349 | 10.95014 | 11305 ft | 370 kts | 35° |
| 2026-05-07 14:18 | 49.73161 | 10.97997 | 11479 ft | 396 kts | 51° |
| 2026-05-07 14:18 | 49.74842 | 11.01491 | 11926 ft | 408 kts | 52° |
| 2026-05-07 14:19 | 49.76504 | 11.05059 | 12574 ft | 413 kts | 53° |
| 2026-05-07 14:19 | 49.78162 | 11.08658 | 13224 ft | 418 kts | 53° |
| 2026-05-07 14:19 | 49.79879 | 11.12389 | 13916 ft | 422 kts | 53° |
| 2026-05-07 14:19 | 49.81600 | 11.16109 | 14543 ft | 426 kts | 53° |
| 2026-05-07 14:20 | 49.83335 | 11.19846 | 15182 ft | 430 kts | 52° |
| 2026-05-07 14:20 | 49.85044 | 11.23515 | 15772 ft | 433 kts | 52° |
| 2026-05-07 14:20 | 49.86817 | 11.27316 | 16362 ft | 436 kts | 52° |
| 2026-05-07 14:20 | 49.88595 | 11.31129 | 16961 ft | 438 kts | 53° |
| 2026-05-07 14:21 | 49.90394 | 11.34993 | 17542 ft | 441 kts | 52° |
| 2026-05-07 14:21 | 49.92195 | 11.38864 | 18126 ft | 444 kts | 52° |
| 2026-05-07 14:21 | 49.94164 | 11.42481 | 18598 ft | 445 kts | 44° |
| 2026-05-07 14:21 | 49.96359 | 11.45892 | 18919 ft | 447 kts | 43° |
| 2026-05-07 14:22 | 49.98583 | 11.49351 | 18996 ft | 448 kts | 43° |
| 2026-05-07 14:22 | 50.00758 | 11.52753 | 19014 ft | 448 kts | 44° |
| 2026-05-07 14:22 | 50.02940 | 11.56190 | 19012 ft | 448 kts | 44° |
| 2026-05-07 14:22 | 50.05126 | 11.59697 | 19010 ft | 447 kts | 44° |
| 2026-05-07 14:23 | 50.07298 | 11.63142 | 19015 ft | 447 kts | 44° |
| 2026-05-07 14:23 | 50.09447 | 11.66585 | 19007 ft | 447 kts | 46° |
| 2026-05-07 14:23 | 50.11581 | 11.70128 | 19006 ft | 447 kts | 46° |
| 2026-05-07 14:23 | 50.13692 | 11.73657 | 19005 ft | 447 kts | 46° |
| 2026-05-07 14:24 | 50.15824 | 11.77233 | 19004 ft | 448 kts | 46° |
| 2026-05-07 14:24 | 50.17935 | 11.80803 | 19003 ft | 447 kts | 48° |
| 2026-05-07 14:24 | 50.19790 | 11.84698 | 18998 ft | 448 kts | 57° |
| 2026-05-07 14:24 | 50.21402 | 11.88786 | 19000 ft | 448 kts | 58° |
| 2026-05-07 14:25 | 50.23063 | 11.93008 | 18998 ft | 448 kts | 57° |
| 2026-05-07 14:25 | 50.24672 | 11.97099 | 19003 ft | 451 kts | 58° |
| 2026-05-07 14:25 | 50.26330 | 12.01321 | 19004 ft | 458 kts | 58° |
| 2026-05-07 14:25 | 50.28044 | 12.05530 | 19006 ft | 459 kts | 57° |
| 2026-05-07 14:26 | 50.29725 | 12.09777 | 19007 ft | 458 kts | 60° |
| 2026-05-07 14:26 | 50.31307 | 12.14116 | 19006 ft | 457 kts | 62° |
| 2026-05-07 14:26 | 50.32823 | 12.18502 | 19008 ft | 457 kts | 63° |
| 2026-05-07 14:26 | 50.34305 | 12.22887 | 19007 ft | 457 kts | 62° |
| 2026-05-07 14:27 | 50.35798 | 12.27304 | 19008 ft | 457 kts | 62° |
| 2026-05-07 14:27 | 50.37302 | 12.31691 | 19007 ft | 457 kts | 62° |
| 2026-05-07 14:27 | 50.38825 | 12.36071 | 19008 ft | 458 kts | 62° |
| 2026-05-07 14:27 | 50.40353 | 12.40427 | 19063 ft | 463 kts | 61° |
| 2026-05-07 14:28 | 50.41894 | 12.44819 | 19154 ft | 458 kts | 62° |
| 2026-05-07 14:28 | 50.43435 | 12.49208 | 19124 ft | 459 kts | 62° |
| 2026-05-07 14:28 | 50.44990 | 12.53637 | 18938 ft | 456 kts | 62° |
| 2026-05-07 14:28 | 50.46479 | 12.57886 | 18246 ft | 449 kts | 62° |
| 2026-05-07 14:29 | 50.47978 | 12.62177 | 17266 ft | 445 kts | 62° |
| 2026-05-07 14:29 | 50.49460 | 12.66425 | 16366 ft | 442 kts | 63° |
| 2026-05-07 14:29 | 50.50923 | 12.70634 | 15491 ft | 438 kts | 62° |
| 2026-05-07 14:29 | 50.52377 | 12.74842 | 14664 ft | 435 kts | 62° |
| 2026-05-07 14:30 | 50.53804 | 12.78973 | 13848 ft | 431 kts | 62° |
| 2026-05-07 14:30 | 50.55250 | 12.83181 | 12961 ft | 427 kts | 62° |
| 2026-05-07 14:30 | 50.56634 | 12.87210 | 12140 ft | 422 kts | 62° |
| 2026-05-07 14:30 | 50.58023 | 12.91250 | 11377 ft | 418 kts | 62° |
| 2026-05-07 14:31 | 50.59420 | 12.95271 | 11076 ft | 418 kts | 59° |
| 2026-05-07 14:31 | 50.61209 | 12.98828 | 10968 ft | 416 kts | 44° |
| 2026-05-07 14:31 | 50.63293 | 13.02006 | 10997 ft | 417 kts | 44° |
| 2026-05-07 14:31 | 50.65385 | 13.05198 | 10993 ft | 417 kts | 44° |
| 2026-05-07 14:32 | 50.67473 | 13.08390 | 10997 ft | 417 kts | 44° |
| 2026-05-07 14:32 | 50.69526 | 13.11528 | 11005 ft | 417 kts | 44° |
| 2026-05-07 14:32 | 50.71627 | 13.14746 | 11004 ft | 417 kts | 44° |
| 2026-05-07 14:32 | 50.73684 | 13.17901 | 11006 ft | 417 kts | 44° |
| 2026-05-07 14:33 | 50.75772 | 13.21108 | 10992 ft | 417 kts | 44° |
| 2026-05-07 14:33 | 50.77858 | 13.24309 | 10947 ft | 420 kts | 44° |
| 2026-05-07 14:33 | 50.79879 | 13.27413 | 10549 ft | 388 kts | 44° |
| 2026-05-07 14:33 | 50.81735 | 13.30270 | 10249 ft | 357 kts | 44° |
| 2026-05-07 14:34 | 50.83445 | 13.32908 | 10082 ft | 327 kts | 44° |
| 2026-05-07 14:34 | 50.85015 | 13.35335 | 9770 ft | 308 kts | 43° |
| 2026-05-07 14:34 | 50.86527 | 13.37673 | 9106 ft | 302 kts | 43° |
| 2026-05-07 14:34 | 50.88005 | 13.39961 | 8422 ft | 298 kts | 43° |
| 2026-05-07 14:35 | 50.89474 | 13.42237 | 7740 ft | 293 kts | 43° |
| 2026-05-07 14:35 | 50.90928 | 13.44493 | 7020 ft | 291 kts | 43° |
| 2026-05-07 14:35 | 50.92376 | 13.46739 | 6364 ft | 285 kts | 43° |
| 2026-05-07 14:35 | 50.93774 | 13.48902 | 5664 ft | 281 kts | 41° |
| 2026-05-07 14:36 | 50.95211 | 13.51010 | 5153 ft | 273 kts | 40° |
| 2026-05-07 14:36 | 50.96568 | 13.52925 | 4982 ft | 255 kts | 40° |
| 2026-05-07 14:36 | 50.97842 | 13.54710 | 4773 ft | 239 kts | 39° |
| 2026-05-07 14:36 | 50.99058 | 13.56407 | 4643 ft | 221 kts | 39° |
| 2026-05-07 14:37 | 51.00144 | 13.57950 | 4588 ft | 200 kts | 44° |
| 2026-05-07 14:37 | 51.01819 | 13.60869 | 4126 ft | 162 kts | 39° |
| 2026-05-07 14:37 | 51.02634 | 13.61990 | 4043 ft | 148 kts | 38° |
| 2026-05-07 14:38 | 51.03394 | 13.63029 | 4028 ft | 141 kts | 37° |
| 2026-05-07 14:38 | 51.04134 | 13.64040 | 4028 ft | 140 kts | 39° |
| 2026-05-07 14:38 | 51.04869 | 13.65046 | 4030 ft | 139 kts | 38° |
| 2026-05-07 14:38 | 51.05605 | 13.66053 | 4021 ft | 140 kts | 39° |
| 2026-05-07 14:39 | 51.06369 | 13.67052 | 3633 ft | 144 kts | 39° |
| 2026-05-07 14:39 | 51.07145 | 13.68098 | 3193 ft | 147 kts | 39° |
| 2026-05-07 14:39 | 51.07941 | 13.69160 | 2552 ft | 156 kts | 38° |
| 2026-05-07 14:39 | 51.08804 | 13.70269 | 1784 ft | 164 kts | 37° |
| 2026-05-07 14:40 | 51.09640 | 13.71302 | 1551 ft | 144 kts | 38° |
| 2026-05-07 14:40 | 51.10391 | 13.72404 | 843 ft | 157 kts | 42° |
| 2026-05-07 14:40 | 51.11089 | 13.73583 | 894 ft | 138 kts | 45° |
| 2026-05-07 14:40 | 51.11733 | 13.74648 | 936 ft | 130 kts | 34° |
| 2026-05-07 14:41 | 51.12467 | 13.75468 | 824 ft | 131 kts | 38° |
| 2026-05-07 14:41 | 51.13092 | 13.76310 | 749 ft | 109 kts | 39° |
| 2026-05-07 14:41 | 51.13670 | 13.77255 | 1151 ft | 138 kts | 45° |
| 2026-05-07 14:41 | 51.14417 | 13.78406 | 2026 ft | 153 kts | 39° |
| 2026-05-07 14:42 | 51.15277 | 13.79590 | 2795 ft | 172 kts | 38° |
| 2026-05-07 14:42 | 51.15911 | 13.80443 | 3053 ft | 187 kts | 39° |
| 2026-05-07 14:42 | 51.16946 | 13.81831 | 3604 ft | 199 kts | 38° |
| 2026-05-07 14:42 | 51.18031 | 13.83286 | 3967 ft | 208 kts | 38° |
| 2026-05-07 14:43 | 51.19526 | 13.85252 | 4072 ft | 210 kts | 32° |
| 2026-05-07 14:43 | 51.20417 | 13.85863 | 4053 ft | 206 kts | 9° |
| 2026-05-07 14:43 | 51.21819 | 13.85698 | 4038 ft | 203 kts | 338° |